sensor_id;sensor_type;location;lat;lon;timestamp;P1;durP1;ratioP1;P2;durP2;ratioP2
6388;SDS011;3227;42.654;23.360;2023-04-16T00:02:00;9.33;;;3.87;;
6388;SDS011;3227;42.654;23.360;2023-04-16T00:04:27;7.97;;;3.30;;
6388;SDS011;3227;42.654;23.360;2023-04-16T00:06:53;9.73;;;3.70;;
6388;SDS011;3227;42.654;23.360;2023-04-16T00:09:20;7.07;;;3.53;;
6388;SDS011;3227;42.654;23.360;2023-04-16T00:11:47;11.43;;;3.63;;
6388;SDS011;3227;42.654;23.360;2023-04-16T00:14:15;6.37;;;3.33;;
6388;SDS011;3227;42.654;23.360;2023-04-16T00:16:42;9.63;;;3.93;;
6388;SDS011;3227;42.654;23.360;2023-04-16T00:19:09;6.97;;;3.23;;
6388;SDS011;3227;42.654;23.360;2023-04-16T00:21:36;7.43;;;3.50;;
6388;SDS011;3227;42.654;23.360;2023-04-16T00:24:03;8.33;;;3.57;;
6388;SDS011;3227;42.654;23.360;2023-04-16T00:26:30;8.07;;;3.63;;
6388;SDS011;3227;42.654;23.360;2023-04-16T00:28:56;11.07;;;3.80;;
6388;SDS011;3227;42.654;23.360;2023-04-16T00:31:28;8.77;;;4.13;;
6388;SDS011;3227;42.654;23.360;2023-04-16T00:33:56;7.97;;;4.00;;
6388;SDS011;3227;42.654;23.360;2023-04-16T00:36:24;9.83;;;4.03;;
6388;SDS011;3227;42.654;23.360;2023-04-16T00:38:53;7.10;;;3.53;;
6388;SDS011;3227;42.654;23.360;2023-04-16T00:41:20;6.80;;;3.50;;
6388;SDS011;3227;42.654;23.360;2023-04-16T00:43:48;8.57;;;3.70;;
6388;SDS011;3227;42.654;23.360;2023-04-16T00:46:15;6.40;;;3.47;;
6388;SDS011;3227;42.654;23.360;2023-04-16T00:48:43;7.03;;;3.60;;
6388;SDS011;3227;42.654;23.360;2023-04-16T00:51:10;9.57;;;3.57;;
6388;SDS011;3227;42.654;23.360;2023-04-16T00:53:37;8.73;;;3.97;;
6388;SDS011;3227;42.654;23.360;2023-04-16T00:56:05;9.37;;;3.30;;
6388;SDS011;3227;42.654;23.360;2023-04-16T00:58:33;8.87;;;3.40;;
6388;SDS011;3227;42.654;23.360;2023-04-16T01:01:00;6.97;;;3.33;;
6388;SDS011;3227;42.654;23.360;2023-04-16T01:03:29;6.10;;;3.23;;
6388;SDS011;3227;42.654;23.360;2023-04-16T01:06:04;7.83;;;3.53;;
6388;SDS011;3227;42.654;23.360;2023-04-16T01:08:31;7.30;;;3.50;;
6388;SDS011;3227;42.654;23.360;2023-04-16T01:10:58;7.07;;;3.10;;
6388;SDS011;3227;42.654;23.360;2023-04-16T01:13:25;6.37;;;3.13;;
6388;SDS011;3227;42.654;23.360;2023-04-16T01:15:52;7.90;;;3.40;;
6388;SDS011;3227;42.654;23.360;2023-04-16T01:18:19;6.20;;;3.40;;
6388;SDS011;3227;42.654;23.360;2023-04-16T01:20:48;7.57;;;3.53;;
6388;SDS011;3227;42.654;23.360;2023-04-16T01:23:16;8.03;;;3.33;;
6388;SDS011;3227;42.654;23.360;2023-04-16T01:25:43;8.23;;;3.40;;
6388;SDS011;3227;42.654;23.360;2023-04-16T01:28:10;7.20;;;3.20;;
6388;SDS011;3227;42.654;23.360;2023-04-16T01:30:37;5.97;;;3.50;;
6388;SDS011;3227;42.654;23.360;2023-04-16T01:33:04;8.03;;;2.93;;
6388;SDS011;3227;42.654;23.360;2023-04-16T01:35:32;6.27;;;3.10;;
6388;SDS011;3227;42.654;23.360;2023-04-16T01:38:00;9.93;;;3.37;;
6388;SDS011;3227;42.654;23.360;2023-04-16T01:40:27;7.20;;;3.40;;
6388;SDS011;3227;42.654;23.360;2023-04-16T01:42:54;6.20;;;3.00;;
6388;SDS011;3227;42.654;23.360;2023-04-16T01:45:20;8.17;;;3.30;;
6388;SDS011;3227;42.654;23.360;2023-04-16T01:47:47;8.00;;;2.97;;
6388;SDS011;3227;42.654;23.360;2023-04-16T01:50:15;9.77;;;3.50;;
6388;SDS011;3227;42.654;23.360;2023-04-16T01:52:42;7.83;;;3.67;;
6388;SDS011;3227;42.654;23.360;2023-04-16T01:55:10;7.90;;;3.50;;
6388;SDS011;3227;42.654;23.360;2023-04-16T01:57:37;7.63;;;3.60;;
6388;SDS011;3227;42.654;23.360;2023-04-16T02:02:51;10.30;;;3.70;;
6388;SDS011;3227;42.654;23.360;2023-04-16T02:05:18;7.33;;;3.23;;
6388;SDS011;3227;42.654;23.360;2023-04-16T02:07:45;6.70;;;3.20;;
6388;SDS011;3227;42.654;23.360;2023-04-16T02:10:13;9.70;;;3.97;;
6388;SDS011;3227;42.654;23.360;2023-04-16T02:12:40;8.77;;;4.13;;
6388;SDS011;3227;42.654;23.360;2023-04-16T02:15:07;10.03;;;3.40;;
6388;SDS011;3227;42.654;23.360;2023-04-16T02:17:34;11.93;;;3.57;;
6388;SDS011;3227;42.654;23.360;2023-04-16T02:20:01;6.43;;;3.23;;
6388;SDS011;3227;42.654;23.360;2023-04-16T02:22:30;6.40;;;2.97;;
6388;SDS011;3227;42.654;23.360;2023-04-16T02:24:57;6.73;;;2.97;;
6388;SDS011;3227;42.654;23.360;2023-04-16T02:27:25;6.43;;;3.13;;
6388;SDS011;3227;42.654;23.360;2023-04-16T02:29:57;5.53;;;2.93;;
6388;SDS011;3227;42.654;23.360;2023-04-16T02:32:23;9.37;;;3.20;;
6388;SDS011;3227;42.654;23.360;2023-04-16T02:34:50;9.53;;;3.20;;
6388;SDS011;3227;42.654;23.360;2023-04-16T02:37:17;5.70;;;2.93;;
6388;SDS011;3227;42.654;23.360;2023-04-16T02:39:44;6.57;;;3.20;;
6388;SDS011;3227;42.654;23.360;2023-04-16T02:42:11;6.50;;;3.17;;
6388;SDS011;3227;42.654;23.360;2023-04-16T02:44:41;6.93;;;3.17;;
6388;SDS011;3227;42.654;23.360;2023-04-16T02:47:07;4.73;;;2.67;;
6388;SDS011;3227;42.654;23.360;2023-04-16T02:49:34;7.40;;;3.30;;
6388;SDS011;3227;42.654;23.360;2023-04-16T02:52:01;7.93;;;3.30;;
6388;SDS011;3227;42.654;23.360;2023-04-16T02:54:28;9.10;;;3.30;;
6388;SDS011;3227;42.654;23.360;2023-04-16T02:56:55;8.60;;;3.00;;
6388;SDS011;3227;42.654;23.360;2023-04-16T02:59:22;7.10;;;2.80;;
6388;SDS011;3227;42.654;23.360;2023-04-16T03:01:50;6.03;;;2.90;;
6388;SDS011;3227;42.654;23.360;2023-04-16T03:04:16;6.63;;;3.23;;
6388;SDS011;3227;42.654;23.360;2023-04-16T03:06:43;6.67;;;2.90;;
6388;SDS011;3227;42.654;23.360;2023-04-16T03:09:10;7.93;;;2.90;;
6388;SDS011;3227;42.654;23.360;2023-04-16T03:11:37;6.40;;;3.00;;
6388;SDS011;3227;42.654;23.360;2023-04-16T03:14:04;7.87;;;3.27;;
6388;SDS011;3227;42.654;23.360;2023-04-16T03:16:30;7.67;;;3.33;;
6388;SDS011;3227;42.654;23.360;2023-04-16T03:18:59;5.27;;;2.70;;
6388;SDS011;3227;42.654;23.360;2023-04-16T03:21:25;8.10;;;3.10;;
6388;SDS011;3227;42.654;23.360;2023-04-16T03:23:52;7.67;;;2.80;;
6388;SDS011;3227;42.654;23.360;2023-04-16T03:26:20;7.83;;;3.53;;
6388;SDS011;3227;42.654;23.360;2023-04-16T03:28:47;9.23;;;3.33;;
6388;SDS011;3227;42.654;23.360;2023-04-16T03:31:13;6.13;;;3.17;;
6388;SDS011;3227;42.654;23.360;2023-04-16T03:33:40;6.43;;;2.80;;
6388;SDS011;3227;42.654;23.360;2023-04-16T03:36:08;6.60;;;3.00;;
6388;SDS011;3227;42.654;23.360;2023-04-16T03:38:35;5.53;;;2.80;;
6388;SDS011;3227;42.654;23.360;2023-04-16T03:41:02;6.30;;;3.00;;
6388;SDS011;3227;42.654;23.360;2023-04-16T03:43:29;7.97;;;3.30;;
6388;SDS011;3227;42.654;23.360;2023-04-16T03:45:55;5.30;;;2.80;;
6388;SDS011;3227;42.654;23.360;2023-04-16T03:48:22;6.40;;;2.77;;
6388;SDS011;3227;42.654;23.360;2023-04-16T03:50:49;6.60;;;3.10;;
6388;SDS011;3227;42.654;23.360;2023-04-16T03:53:17;6.60;;;3.33;;
6388;SDS011;3227;42.654;23.360;2023-04-16T03:55:44;5.67;;;2.97;;
6388;SDS011;3227;42.654;23.360;2023-04-16T03:58:14;8.17;;;3.37;;
6388;SDS011;3227;42.654;23.360;2023-04-16T04:00:41;7.90;;;2.97;;
6388;SDS011;3227;42.654;23.360;2023-04-16T04:03:08;10.73;;;3.07;;
6388;SDS011;3227;42.654;23.360;2023-04-16T04:05:35;6.70;;;3.50;;
6388;SDS011;3227;42.654;23.360;2023-04-16T04:08:02;5.27;;;3.00;;
6388;SDS011;3227;42.654;23.360;2023-04-16T04:10:31;6.07;;;3.20;;
6388;SDS011;3227;42.654;23.360;2023-04-16T04:12:58;6.83;;;2.93;;
6388;SDS011;3227;42.654;23.360;2023-04-16T04:15:25;7.03;;;2.97;;
6388;SDS011;3227;42.654;23.360;2023-04-16T04:17:52;6.67;;;2.97;;
6388;SDS011;3227;42.654;23.360;2023-04-16T04:20:19;7.93;;;2.90;;
6388;SDS011;3227;42.654;23.360;2023-04-16T04:22:46;7.17;;;3.30;;
6388;SDS011;3227;42.654;23.360;2023-04-16T04:25:13;9.80;;;3.10;;
6388;SDS011;3227;42.654;23.360;2023-04-16T04:27:41;9.37;;;3.33;;
6388;SDS011;3227;42.654;23.360;2023-04-16T04:30:18;7.43;;;3.20;;
6388;SDS011;3227;42.654;23.360;2023-04-16T04:32:45;8.83;;;3.50;;
6388;SDS011;3227;42.654;23.360;2023-04-16T04:35:12;9.47;;;3.50;;
6388;SDS011;3227;42.654;23.360;2023-04-16T04:37:39;9.80;;;3.83;;
6388;SDS011;3227;42.654;23.360;2023-04-16T04:40:06;8.07;;;4.30;;
6388;SDS011;3227;42.654;23.360;2023-04-16T04:42:35;10.23;;;4.77;;
6388;SDS011;3227;42.654;23.360;2023-04-16T04:45:04;8.57;;;4.17;;
6388;SDS011;3227;42.654;23.360;2023-04-16T04:47:32;10.30;;;4.67;;
6388;SDS011;3227;42.654;23.360;2023-04-16T04:49:59;13.87;;;4.90;;
6388;SDS011;3227;42.654;23.360;2023-04-16T04:52:25;14.97;;;6.00;;
6388;SDS011;3227;42.654;23.360;2023-04-16T04:54:52;8.87;;;4.70;;
6388;SDS011;3227;42.654;23.360;2023-04-16T04:57:19;11.50;;;4.30;;
6388;SDS011;3227;42.654;23.360;2023-04-16T04:59:47;10.80;;;5.07;;
6388;SDS011;3227;42.654;23.360;2023-04-16T05:02:15;9.80;;;4.90;;
6388;SDS011;3227;42.654;23.360;2023-04-16T05:04:42;14.03;;;6.90;;
6388;SDS011;3227;42.654;23.360;2023-04-16T05:07:09;14.20;;;5.90;;
6388;SDS011;3227;42.654;23.360;2023-04-16T05:09:35;12.87;;;5.97;;
6388;SDS011;3227;42.654;23.360;2023-04-16T05:12:02;8.60;;;4.63;;
6388;SDS011;3227;42.654;23.360;2023-04-16T05:14:29;7.50;;;3.80;;
6388;SDS011;3227;42.654;23.360;2023-04-16T05:16:56;7.73;;;3.90;;
6388;SDS011;3227;42.654;23.360;2023-04-16T05:19:24;6.50;;;3.47;;
6388;SDS011;3227;42.654;23.360;2023-04-16T05:21:51;8.03;;;4.20;;
6388;SDS011;3227;42.654;23.360;2023-04-16T05:24:18;8.37;;;4.10;;
6388;SDS011;3227;42.654;23.360;2023-04-16T05:26:45;8.20;;;3.63;;
6388;SDS011;3227;42.654;23.360;2023-04-16T05:29:17;11.03;;;4.90;;
6388;SDS011;3227;42.654;23.360;2023-04-16T05:31:43;7.27;;;3.50;;
6388;SDS011;3227;42.654;23.360;2023-04-16T05:34:10;6.47;;;3.53;;
6388;SDS011;3227;42.654;23.360;2023-04-16T05:36:38;7.57;;;3.43;;
6388;SDS011;3227;42.654;23.360;2023-04-16T05:39:05;9.57;;;3.70;;
6388;SDS011;3227;42.654;23.360;2023-04-16T05:41:32;11.77;;;3.90;;
6388;SDS011;3227;42.654;23.360;2023-04-16T05:43:59;9.37;;;4.47;;
6388;SDS011;3227;42.654;23.360;2023-04-16T05:46:26;7.10;;;3.90;;
6388;SDS011;3227;42.654;23.360;2023-04-16T05:48:53;6.70;;;3.87;;
6388;SDS011;3227;42.654;23.360;2023-04-16T05:51:20;9.80;;;4.33;;
6388;SDS011;3227;42.654;23.360;2023-04-16T05:53:50;7.90;;;3.87;;
6388;SDS011;3227;42.654;23.360;2023-04-16T05:56:17;6.87;;;3.50;;
6388;SDS011;3227;42.654;23.360;2023-04-16T05:58:43;6.40;;;3.70;;
6388;SDS011;3227;42.654;23.360;2023-04-16T06:01:10;9.57;;;3.53;;
6388;SDS011;3227;42.654;23.360;2023-04-16T06:03:37;9.00;;;4.30;;
6388;SDS011;3227;42.654;23.360;2023-04-16T06:06:04;9.27;;;4.13;;
6388;SDS011;3227;42.654;23.360;2023-04-16T06:08:32;8.97;;;4.40;;
6388;SDS011;3227;42.654;23.360;2023-04-16T06:11:01;7.67;;;4.30;;
6388;SDS011;3227;42.654;23.360;2023-04-16T06:13:28;9.33;;;4.33;;
6388;SDS011;3227;42.654;23.360;2023-04-16T06:15:55;7.33;;;4.10;;
6388;SDS011;3227;42.654;23.360;2023-04-16T06:18:22;10.60;;;4.77;;
6388;SDS011;3227;42.654;23.360;2023-04-16T06:20:49;11.07;;;3.80;;
6388;SDS011;3227;42.654;23.360;2023-04-16T06:23:15;6.80;;;3.70;;
6388;SDS011;3227;42.654;23.360;2023-04-16T06:25:42;12.07;;;5.70;;
6388;SDS011;3227;42.654;23.360;2023-04-16T06:28:10;12.17;;;5.10;;
6388;SDS011;3227;42.654;23.360;2023-04-16T06:30:37;12.33;;;5.60;;
6388;SDS011;3227;42.654;23.360;2023-04-16T06:33:04;13.57;;;6.93;;
6388;SDS011;3227;42.654;23.360;2023-04-16T06:35:31;11.13;;;6.03;;
6388;SDS011;3227;42.654;23.360;2023-04-16T06:37:58;13.40;;;6.03;;
6388;SDS011;3227;42.654;23.360;2023-04-16T06:40:25;12.53;;;6.43;;
6388;SDS011;3227;42.654;23.360;2023-04-16T06:42:52;12.77;;;6.43;;
6388;SDS011;3227;42.654;23.360;2023-04-16T06:45:20;11.50;;;6.47;;
6388;SDS011;3227;42.654;23.360;2023-04-16T06:47:47;13.83;;;6.80;;
6388;SDS011;3227;42.654;23.360;2023-04-16T06:50:15;13.13;;;6.57;;
6388;SDS011;3227;42.654;23.360;2023-04-16T06:52:41;16.77;;;5.70;;
6388;SDS011;3227;42.654;23.360;2023-04-16T06:55:08;12.03;;;6.20;;
6388;SDS011;3227;42.654;23.360;2023-04-16T06:57:35;10.60;;;6.23;;
6388;SDS011;3227;42.654;23.360;2023-04-16T07:00:02;10.77;;;5.50;;
6388;SDS011;3227;42.654;23.360;2023-04-16T07:02:31;10.20;;;5.47;;
6388;SDS011;3227;42.654;23.360;2023-04-16T07:04:58;14.00;;;5.63;;
6388;SDS011;3227;42.654;23.360;2023-04-16T07:07:25;10.88;;;5.32;;
6388;SDS011;3227;42.654;23.360;2023-04-16T07:09:51;10.30;;;5.33;;
6388;SDS011;3227;42.654;23.360;2023-04-16T07:12:18;9.53;;;4.37;;
6388;SDS011;3227;42.654;23.360;2023-04-16T07:14:45;10.93;;;4.50;;
6388;SDS011;3227;42.654;23.360;2023-04-16T07:17:12;9.27;;;4.40;;
6388;SDS011;3227;42.654;23.360;2023-04-16T07:19:40;8.70;;;4.60;;
6388;SDS011;3227;42.654;23.360;2023-04-16T07:22:07;8.70;;;5.00;;
6388;SDS011;3227;42.654;23.360;2023-04-16T07:24:34;14.77;;;5.30;;
6388;SDS011;3227;42.654;23.360;2023-04-16T07:27:01;11.30;;;5.50;;
6388;SDS011;3227;42.654;23.360;2023-04-16T07:29:28;10.70;;;4.97;;
6388;SDS011;3227;42.654;23.360;2023-04-16T07:31:54;11.20;;;4.93;;
6388;SDS011;3227;42.654;23.360;2023-04-16T07:34:22;12.63;;;4.70;;
6388;SDS011;3227;42.654;23.360;2023-04-16T07:36:50;16.90;;;5.37;;
6388;SDS011;3227;42.654;23.360;2023-04-16T07:39:17;45.40;;;7.65;;
6388;SDS011;3227;42.654;23.360;2023-04-16T07:41:44;27.30;;;6.10;;
6388;SDS011;3227;42.654;23.360;2023-04-16T07:44:11;39.43;;;7.97;;
6388;SDS011;3227;42.654;23.360;2023-04-16T07:46:37;53.27;;;9.13;;
6388;SDS011;3227;42.654;23.360;2023-04-16T07:49:04;24.23;;;7.57;;
6388;SDS011;3227;42.654;23.360;2023-04-16T07:51:31;17.47;;;5.10;;
6388;SDS011;3227;42.654;23.360;2023-04-16T07:53:59;14.57;;;5.50;;
6388;SDS011;3227;42.654;23.360;2023-04-16T07:56:26;10.27;;;4.90;;
6388;SDS011;3227;42.654;23.360;2023-04-16T07:58:53;10.90;;;4.33;;
6388;SDS011;3227;42.654;23.360;2023-04-16T08:01:20;8.03;;;3.80;;
6388;SDS011;3227;42.654;23.360;2023-04-16T08:03:47;6.50;;;3.27;;
6388;SDS011;3227;42.654;23.360;2023-04-16T08:06:14;6.57;;;3.50;;
6388;SDS011;3227;42.654;23.360;2023-04-16T08:08:41;8.83;;;3.70;;
6388;SDS011;3227;42.654;23.360;2023-04-16T08:11:09;7.07;;;3.80;;
6388;SDS011;3227;42.654;23.360;2023-04-16T08:13:36;7.97;;;3.27;;
6388;SDS011;3227;42.654;23.360;2023-04-16T08:16:03;10.07;;;3.30;;
6388;SDS011;3227;42.654;23.360;2023-04-16T08:18:30;6.93;;;3.70;;
6388;SDS011;3227;42.654;23.360;2023-04-16T08:20:57;8.60;;;3.63;;
6388;SDS011;3227;42.654;23.360;2023-04-16T08:23:24;7.43;;;3.47;;
6388;SDS011;3227;42.654;23.360;2023-04-16T08:25:51;10.37;;;3.50;;
6388;SDS011;3227;42.654;23.360;2023-04-16T08:28:19;10.67;;;3.50;;
6388;SDS011;3227;42.654;23.360;2023-04-16T08:30:46;9.70;;;3.47;;
6388;SDS011;3227;42.654;23.360;2023-04-16T08:33:12;8.37;;;3.10;;
6388;SDS011;3227;42.654;23.360;2023-04-16T08:35:40;8.77;;;3.40;;
6388;SDS011;3227;42.654;23.360;2023-04-16T08:38:07;8.47;;;3.37;;
6388;SDS011;3227;42.654;23.360;2023-04-16T08:40:34;9.10;;;2.90;;
6388;SDS011;3227;42.654;23.360;2023-04-16T08:43:08;8.33;;;3.60;;
6388;SDS011;3227;42.654;23.360;2023-04-16T08:45:37;9.37;;;3.20;;
6388;SDS011;3227;42.654;23.360;2023-04-16T08:48:07;9.27;;;3.33;;
6388;SDS011;3227;42.654;23.360;2023-04-16T08:50:36;10.30;;;3.80;;
6388;SDS011;3227;42.654;23.360;2023-04-16T08:53:04;45.00;;;5.63;;
6388;SDS011;3227;42.654;23.360;2023-04-16T08:55:34;8.07;;;3.43;;
6388;SDS011;3227;42.654;23.360;2023-04-16T08:58:06;9.37;;;3.13;;
6388;SDS011;3227;42.654;23.360;2023-04-16T09:00:34;7.37;;;3.20;;
6388;SDS011;3227;42.654;23.360;2023-04-16T09:03:05;6.90;;;2.90;;
6388;SDS011;3227;42.654;23.360;2023-04-16T09:05:32;8.95;;;3.38;;
6388;SDS011;3227;42.654;23.360;2023-04-16T09:07:59;8.67;;;3.27;;
6388;SDS011;3227;42.654;23.360;2023-04-16T09:10:26;9.47;;;3.50;;
6388;SDS011;3227;42.654;23.360;2023-04-16T09:12:54;9.93;;;3.67;;
6388;SDS011;3227;42.654;23.360;2023-04-16T09:15:21;9.47;;;3.43;;
6388;SDS011;3227;42.654;23.360;2023-04-16T09:17:51;8.83;;;3.30;;
6388;SDS011;3227;42.654;23.360;2023-04-16T09:20:17;7.33;;;3.30;;
6388;SDS011;3227;42.654;23.360;2023-04-16T09:22:45;7.33;;;3.10;;
6388;SDS011;3227;42.654;23.360;2023-04-16T09:25:12;8.73;;;3.40;;
6388;SDS011;3227;42.654;23.360;2023-04-16T09:27:39;9.93;;;3.10;;
6388;SDS011;3227;42.654;23.360;2023-04-16T09:30:19;9.40;;;3.28;;
6388;SDS011;3227;42.654;23.360;2023-04-16T09:32:51;9.07;;;3.27;;
6388;SDS011;3227;42.654;23.360;2023-04-16T09:35:43;7.93;;;3.27;;
6388;SDS011;3227;42.654;23.360;2023-04-16T09:38:11;9.30;;;2.90;;
6388;SDS011;3227;42.654;23.360;2023-04-16T09:40:38;8.33;;;3.10;;
6388;SDS011;3227;42.654;23.360;2023-04-16T09:43:08;7.97;;;3.27;;
6388;SDS011;3227;42.654;23.360;2023-04-16T09:45:43;7.97;;;3.10;;
6388;SDS011;3227;42.654;23.360;2023-04-16T09:48:15;9.70;;;3.43;;
6388;SDS011;3227;42.654;23.360;2023-04-16T09:50:54;7.40;;;3.13;;
6388;SDS011;3227;42.654;23.360;2023-04-16T09:53:22;8.43;;;3.00;;
6388;SDS011;3227;42.654;23.360;2023-04-16T09:55:50;6.40;;;3.10;;
6388;SDS011;3227;42.654;23.360;2023-04-16T09:58:17;9.03;;;3.57;;
6388;SDS011;3227;42.654;23.360;2023-04-16T10:00:44;9.03;;;3.50;;
6388;SDS011;3227;42.654;23.360;2023-04-16T10:03:11;11.13;;;3.30;;
6388;SDS011;3227;42.654;23.360;2023-04-16T10:05:39;7.20;;;3.17;;
6388;SDS011;3227;42.654;23.360;2023-04-16T10:08:10;6.80;;;3.10;;
6388;SDS011;3227;42.654;23.360;2023-04-16T10:10:38;7.13;;;2.80;;
6388;SDS011;3227;42.654;23.360;2023-04-16T10:13:05;7.20;;;2.97;;
6388;SDS011;3227;42.654;23.360;2023-04-16T10:15:32;6.90;;;3.40;;
6388;SDS011;3227;42.654;23.360;2023-04-16T10:17:59;9.03;;;3.17;;
6388;SDS011;3227;42.654;23.360;2023-04-16T10:20:27;7.77;;;2.83;;
6388;SDS011;3227;42.654;23.360;2023-04-16T10:22:56;10.03;;;3.30;;
6388;SDS011;3227;42.654;23.360;2023-04-16T10:25:23;8.43;;;3.10;;
6388;SDS011;3227;42.654;23.360;2023-04-16T10:27:51;8.23;;;3.00;;
6388;SDS011;3227;42.654;23.360;2023-04-16T10:30:18;8.60;;;3.13;;
6388;SDS011;3227;42.654;23.360;2023-04-16T10:32:45;7.87;;;3.20;;
6388;SDS011;3227;42.654;23.360;2023-04-16T10:35:14;6.80;;;3.00;;
6388;SDS011;3227;42.654;23.360;2023-04-16T10:37:41;7.27;;;3.20;;
6388;SDS011;3227;42.654;23.360;2023-04-16T10:40:23;7.03;;;3.13;;
6388;SDS011;3227;42.654;23.360;2023-04-16T10:42:55;8.20;;;3.17;;
6388;SDS011;3227;42.654;23.360;2023-04-16T10:45:25;8.53;;;2.90;;
6388;SDS011;3227;42.654;23.360;2023-04-16T10:47:55;9.73;;;3.50;;
6388;SDS011;3227;42.654;23.360;2023-04-16T10:50:22;9.17;;;3.70;;
6388;SDS011;3227;42.654;23.360;2023-04-16T10:53:00;8.97;;;3.07;;
6388;SDS011;3227;42.654;23.360;2023-04-16T10:55:56;10.93;;;3.23;;
6388;SDS011;3227;42.654;23.360;2023-04-16T10:58:38;7.17;;;2.87;;
6388;SDS011;3227;42.654;23.360;2023-04-16T11:01:05;7.73;;;3.10;;
6388;SDS011;3227;42.654;23.360;2023-04-16T11:03:36;7.70;;;3.17;;
6388;SDS011;3227;42.654;23.360;2023-04-16T11:06:11;5.97;;;2.77;;
6388;SDS011;3227;42.654;23.360;2023-04-16T11:08:40;7.50;;;3.08;;
6388;SDS011;3227;42.654;23.360;2023-04-16T11:11:11;8.65;;;3.00;;
6388;SDS011;3227;42.654;23.360;2023-04-16T11:13:39;7.80;;;3.10;;
6388;SDS011;3227;42.654;23.360;2023-04-16T11:16:08;7.63;;;3.23;;
6388;SDS011;3227;42.654;23.360;2023-04-16T11:18:37;6.20;;;2.87;;
6388;SDS011;3227;42.654;23.360;2023-04-16T11:21:06;7.53;;;3.10;;
6388;SDS011;3227;42.654;23.360;2023-04-16T11:23:44;6.13;;;2.67;;
6388;SDS011;3227;42.654;23.360;2023-04-16T11:26:20;8.20;;;3.03;;
6388;SDS011;3227;42.654;23.360;2023-04-16T11:28:55;8.23;;;3.30;;
6388;SDS011;3227;42.654;23.360;2023-04-16T11:31:24;12.90;;;3.10;;
6388;SDS011;3227;42.654;23.360;2023-04-16T11:33:51;7.63;;;3.00;;
6388;SDS011;3227;42.654;23.360;2023-04-16T11:36:20;9.07;;;2.70;;
6388;SDS011;3227;42.654;23.360;2023-04-16T11:38:47;7.72;;;2.70;;
6388;SDS011;3227;42.654;23.360;2023-04-16T11:41:19;7.28;;;2.90;;
6388;SDS011;3227;42.654;23.360;2023-04-16T11:43:47;7.43;;;2.90;;
6388;SDS011;3227;42.654;23.360;2023-04-16T11:46:13;7.78;;;2.78;;
6388;SDS011;3227;42.654;23.360;2023-04-16T11:48:50;6.00;;;2.58;;
6388;SDS011;3227;42.654;23.360;2023-04-16T11:51:18;5.43;;;2.40;;
6388;SDS011;3227;42.654;23.360;2023-04-16T11:53:47;6.40;;;2.42;;
6388;SDS011;3227;42.654;23.360;2023-04-16T11:56:25;8.75;;;2.55;;
6388;SDS011;3227;42.654;23.360;2023-04-16T11:59:05;7.85;;;2.72;;
6388;SDS011;3227;42.654;23.360;2023-04-16T12:01:33;6.22;;;3.13;;
6388;SDS011;3227;42.654;23.360;2023-04-16T12:04:00;8.48;;;3.42;;
6388;SDS011;3227;42.654;23.360;2023-04-16T12:06:28;9.77;;;2.70;;
6388;SDS011;3227;42.654;23.360;2023-04-16T12:11:51;9.43;;;2.80;;
6388;SDS011;3227;42.654;23.360;2023-04-16T12:14:18;8.95;;;2.80;;
6388;SDS011;3227;42.654;23.360;2023-04-16T12:16:45;9.55;;;2.58;;
6388;SDS011;3227;42.654;23.360;2023-04-16T12:19:12;4.75;;;2.25;;
6388;SDS011;3227;42.654;23.360;2023-04-16T12:21:40;7.50;;;2.60;;
6388;SDS011;3227;42.654;23.360;2023-04-16T12:24:08;5.22;;;2.20;;
6388;SDS011;3227;42.654;23.360;2023-04-16T12:26:41;7.32;;;2.40;;
6388;SDS011;3227;42.654;23.360;2023-04-16T12:29:17;10.13;;;2.53;;
6388;SDS011;3227;42.654;23.360;2023-04-16T12:31:45;7.70;;;2.55;;
6388;SDS011;3227;42.654;23.360;2023-04-16T12:34:13;5.95;;;2.80;;
6388;SDS011;3227;42.654;23.360;2023-04-16T12:36:42;6.32;;;2.47;;
6388;SDS011;3227;42.654;23.360;2023-04-16T12:39:10;4.30;;;2.10;;
6388;SDS011;3227;42.654;23.360;2023-04-16T12:41:39;6.82;;;2.65;;
6388;SDS011;3227;42.654;23.360;2023-04-16T12:44:07;6.43;;;2.80;;
6388;SDS011;3227;42.654;23.360;2023-04-16T12:46:37;7.85;;;3.22;;
6388;SDS011;3227;42.654;23.360;2023-04-16T12:49:05;7.50;;;3.08;;
6388;SDS011;3227;42.654;23.360;2023-04-16T12:51:32;7.72;;;2.92;;
6388;SDS011;3227;42.654;23.360;2023-04-16T12:53:59;8.93;;;3.28;;
6388;SDS011;3227;42.654;23.360;2023-04-16T12:56:27;8.95;;;2.90;;
6388;SDS011;3227;42.654;23.360;2023-04-16T12:58:54;7.73;;;2.83;;
6388;SDS011;3227;42.654;23.360;2023-04-16T13:01:21;9.50;;;3.30;;
6388;SDS011;3227;42.654;23.360;2023-04-16T13:03:49;7.85;;;2.80;;
6388;SDS011;3227;42.654;23.360;2023-04-16T13:06:16;7.93;;;2.85;;
6388;SDS011;3227;42.654;23.360;2023-04-16T13:08:43;7.10;;;3.30;;
6388;SDS011;3227;42.654;23.360;2023-04-16T13:11:10;7.20;;;2.90;;
6388;SDS011;3227;42.654;23.360;2023-04-16T13:13:38;7.30;;;2.53;;
6388;SDS011;3227;42.654;23.360;2023-04-16T13:16:05;6.53;;;2.55;;
6388;SDS011;3227;42.654;23.360;2023-04-16T13:18:33;5.93;;;2.70;;
6388;SDS011;3227;42.654;23.360;2023-04-16T13:21:02;9.75;;;2.97;;
6388;SDS011;3227;42.654;23.360;2023-04-16T13:23:29;5.40;;;2.70;;
6388;SDS011;3227;42.654;23.360;2023-04-16T13:25:56;10.77;;;2.95;;
6388;SDS011;3227;42.654;23.360;2023-04-16T13:28:23;8.45;;;2.85;;
6388;SDS011;3227;42.654;23.360;2023-04-16T13:30:50;9.55;;;3.10;;
6388;SDS011;3227;42.654;23.360;2023-04-16T13:33:17;9.50;;;3.17;;
6388;SDS011;3227;42.654;23.360;2023-04-16T13:35:45;7.50;;;3.20;;
6388;SDS011;3227;42.654;23.360;2023-04-16T13:38:13;6.57;;;2.50;;
6388;SDS011;3227;42.654;23.360;2023-04-16T13:40:40;5.20;;;2.63;;
6388;SDS011;3227;42.654;23.360;2023-04-16T13:43:07;7.63;;;2.73;;
6388;SDS011;3227;42.654;23.360;2023-04-16T13:45:34;8.50;;;2.67;;
6388;SDS011;3227;42.654;23.360;2023-04-16T13:48:01;9.38;;;3.10;;
6388;SDS011;3227;42.654;23.360;2023-04-16T13:50:28;7.43;;;2.53;;
6388;SDS011;3227;42.654;23.360;2023-04-16T13:52:54;7.77;;;2.83;;
6388;SDS011;3227;42.654;23.360;2023-04-16T13:55:23;9.17;;;2.63;;
6388;SDS011;3227;42.654;23.360;2023-04-16T13:57:50;7.30;;;2.67;;
6388;SDS011;3227;42.654;23.360;2023-04-16T14:00:17;9.07;;;2.78;;
6388;SDS011;3227;42.654;23.360;2023-04-16T14:02:44;7.97;;;2.90;;
6388;SDS011;3227;42.654;23.360;2023-04-16T14:05:12;5.50;;;2.60;;
6388;SDS011;3227;42.654;23.360;2023-04-16T14:07:39;6.53;;;2.47;;
6388;SDS011;3227;42.654;23.360;2023-04-16T14:10:07;5.77;;;2.50;;
6388;SDS011;3227;42.654;23.360;2023-04-16T14:12:35;5.60;;;2.37;;
6388;SDS011;3227;42.654;23.360;2023-04-16T14:15:03;7.83;;;2.73;;
6388;SDS011;3227;42.654;23.360;2023-04-16T14:17:33;5.77;;;2.60;;
6388;SDS011;3227;42.654;23.360;2023-04-16T14:20:01;7.87;;;2.60;;
6388;SDS011;3227;42.654;23.360;2023-04-16T14:22:28;6.50;;;2.33;;
6388;SDS011;3227;42.654;23.360;2023-04-16T14:24:55;6.28;;;2.25;;
6388;SDS011;3227;42.654;23.360;2023-04-16T14:27:22;6.22;;;2.40;;
6388;SDS011;3227;42.654;23.360;2023-04-16T14:29:50;7.40;;;2.60;;
6388;SDS011;3227;42.654;23.360;2023-04-16T14:32:17;8.32;;;3.20;;
6388;SDS011;3227;42.654;23.360;2023-04-16T14:34:44;11.00;;;3.00;;
6388;SDS011;3227;42.654;23.360;2023-04-16T14:37:10;7.47;;;2.97;;
6388;SDS011;3227;42.654;23.360;2023-04-16T14:39:37;7.90;;;3.20;;
6388;SDS011;3227;42.654;23.360;2023-04-16T14:42:04;6.00;;;3.00;;
6388;SDS011;3227;42.654;23.360;2023-04-16T14:44:31;7.72;;;3.20;;
6388;SDS011;3227;42.654;23.360;2023-04-16T14:46:59;6.70;;;3.00;;
6388;SDS011;3227;42.654;23.360;2023-04-16T14:49:26;6.72;;;3.20;;
6388;SDS011;3227;42.654;23.360;2023-04-16T14:51:53;7.82;;;3.13;;
6388;SDS011;3227;42.654;23.360;2023-04-16T14:54:20;6.40;;;3.03;;
6388;SDS011;3227;42.654;23.360;2023-04-16T14:56:47;5.40;;;3.00;;
6388;SDS011;3227;42.654;23.360;2023-04-16T14:59:15;7.50;;;3.67;;
6388;SDS011;3227;42.654;23.360;2023-04-16T15:01:41;8.02;;;3.30;;
6388;SDS011;3227;42.654;23.360;2023-04-16T15:04:10;5.80;;;2.80;;
6388;SDS011;3227;42.654;23.360;2023-04-16T15:06:37;8.23;;;3.33;;
6388;SDS011;3227;42.654;23.360;2023-04-16T15:09:03;9.75;;;3.90;;